Time;durP1;ratioP1;P1;durP2;ratioP2;P2;SDS_P1;SDS_P2;PMS_P1;PMS_P2;Temp;Humidity;BMP_temperature;BMP_pressure;BME280_temperature;BME280_humidity;BME280_pressure;Samples;Min_cycle;Max_cycle;Signal;HPM_P1;HPM_P2
2022/01/24 00:03:14;;;;;;;61.47;36.22;;;;;;;4.38;100.00;103456.81;10456905;28;20057;-56
2022/01/24 00:08:16;;;;;;;56.17;32.90;;;;;;;4.45;100.00;103468.97;10456721;28;20049;-51
2022/01/24 00:29:23;;;;;;;45.08;28.58;;;;;;;4.34;100.00;103442.03;10456319;28;20053;-57
2022/01/24 00:34:25;;;;;;;39.00;24.95;;;;;;;4.68;100.00;103445.88;10457109;28;20052;-55
2022/01/24 00:39:28;;;;;;;43.20;26.50;;;;;;;4.61;100.00;103450.13;10456101;28;20045;-57
2022/01/24 00:53:10;;;;;;;40.88;27.27;;;;;;;4.44;100.00;103449.97;10455731;28;20397;-53
2022/01/24 00:55:01;;;;;;;30.88;22.27;;;;;;;4.33;100.00;103443.78;10455307;28;20045;-57
2022/01/24 01:00:04;;;;;;;38.47;25.80;;;;;;;4.35;100.00;103436.88;10455950;28;20057;-55
2022/01/24 01:26:08;;;;;;;42.80;26.30;;;;;;;4.41;100.00;103434.34;10463286;28;20044;-53
2022/01/24 01:31:19;;;;;;;41.28;26.77;;;;;;;4.24;100.00;103431.59;10462852;28;20071;-54
2022/01/24 01:36:46;;;;;;;40.10;26.00;;;;;;;4.49;100.00;103431.84;10462417;28;20049;-54
2022/01/24 01:52:44;;;;;;;28.25;20.38;;;;;;;4.33;100.00;103423.03;10462429;28;20484;-56
2022/01/24 01:57:47;;;;;;;35.67;23.52;;;;;;;4.20;100.00;103424.63;10460851;28;20047;-56
2022/01/24 02:02:50;;;;;;;32.80;21.58;;;;;;;4.44;100.00;103418.84;10462130;28;20075;-58
2022/01/24 02:07:53;;;;;;;33.45;23.17;;;;;;;3.95;100.00;103415.69;10461000;28;20397;-55
2022/01/24 02:12:56;;;;;;;35.80;21.38;;;;;;;3.79;100.00;103418.94;10460960;28;20045;-55
2022/01/24 02:28:43;;;;;;;33.63;21.88;;;;;;;3.36;100.00;103414.03;10461235;28;20045;-54
2022/01/24 02:33:47;;;;;;;33.08;21.65;;;;;;;3.52;100.00;103409.94;10459397;28;20049;-52
2022/01/24 02:49:15;;;;;;;38.83;24.88;;;;;;;3.29;100.00;103407.88;10458917;28;20045;-58
2022/01/24 02:54:30;;;;;;;40.88;24.30;;;;;;;3.19;100.00;103399.97;10459157;28;20151;-53
2022/01/24 02:59:33;;;;;;;39.22;23.50;;;;;;;3.11;100.00;103402.41;10459200;28;20056;-58
2022/01/24 03:04:35;;;;;;;37.90;23.92;;;;;;;3.31;100.00;103403.63;10458968;28;20056;-53
2022/01/24 03:09:37;;;;;;;45.30;25.52;;;;;;;3.15;100.00;103391.28;10457987;28;20049;-55
2022/01/24 03:14:40;;;;;;;33.83;22.02;;;;;;;3.15;100.00;103383.50;10459904;28;20053;-58
2022/01/24 03:19:42;;;;;;;33.80;21.20;;;;;;;3.22;100.00;103377.56;10458157;28;20485;-53
2022/01/24 03:24:45;;;;;;;39.88;23.05;;;;;;;3.39;100.00;103380.41;10458180;28;20045;-55
2022/01/24 03:29:47;;;;;;;37.65;24.00;;;;;;;3.37;100.00;103382.09;10458159;28;20057;-55
2022/01/24 03:34:50;;;;;;;35.60;22.27;;;;;;;3.48;100.00;103377.06;10457071;28;20492;-52
2022/01/24 03:39:52;;;;;;;36.00;23.55;;;;;;;3.33;100.00;103381.19;10457227;28;20377;-54
2022/01/24 03:44:58;;;;;;;40.45;25.25;;;;;;;3.38;100.00;103378.69;10457292;28;20067;-54
2022/01/24 03:50:04;;;;;;;40.75;24.13;;;;;;;3.34;100.00;103377.72;10458742;28;20051;-57
2022/01/24 03:55:07;;;;;;;41.10;24.48;;;;;;;3.26;100.00;103376.78;10457075;28;20378;-55
2022/01/24 04:00:10;;;;;;;36.78;23.02;;;;;;;3.20;100.00;103371.50;10456592;28;20481;-52
2022/01/24 04:05:13;;;;;;;39.53;24.63;;;;;;;3.14;100.00;103366.22;10456843;28;20045;-56
2022/01/24 04:10:18;;;;;;;39.30;23.00;;;;;;;3.11;100.00;103374.84;10456621;28;20056;-53
2022/01/24 04:25:54;;;;;;;36.83;23.17;;;;;;;3.16;100.00;103380.06;10455482;28;20056;-55
2022/01/24 04:30:56;;;;;;;37.38;23.42;;;;;;;3.07;100.00;103379.94;10456935;28;20048;-58
2022/01/24 04:35:59;;;;;;;38.25;23.35;;;;;;;3.00;100.00;103389.31;10456320;28;20092;-56
2022/01/24 04:41:05;;;;;;;37.28;23.52;;;;;;;3.14;100.00;103384.34;10456096;28;20061;-52
2022/01/24 04:46:19;;;;;;;36.80;22.35;;;;;;;3.08;100.00;103385.13;10456334;28;20045;-57
2022/01/24 04:51:38;;;;;;;37.25;22.90;;;;;;;3.11;100.00;103389.47;10456003;28;20049;-55
2022/01/24 04:56:42;;;;;;;35.42;23.08;;;;;;;3.14;100.00;103384.34;10458935;28;20045;-56
2022/01/24 05:01:45;;;;;;;41.08;23.17;;;;;;;3.00;100.00;103388.47;10464370;28;20053;-54
2022/01/24 05:06:47;;;;;;;35.63;22.55;;;;;;;3.19;100.00;103387.00;10464489;28;20049;-56
2022/01/24 05:11:55;;;;;;;36.15;21.92;;;;;;;3.09;100.00;103389.47;10463455;28;20056;-53
2022/01/24 05:27:21;;;;;;;33.38;21.25;;;;;;;3.22;100.00;103376.72;10462902;28;20056;-54
2022/01/24 05:32:24;;;;;;;33.88;20.85;;;;;;;3.47;100.00;103375.34;10462450;28;20056;-54
2022/01/24 05:37:27;;;;;;;31.48;22.27;;;;;;;3.24;100.00;103369.81;10462916;28;20052;-57
2022/01/24 05:42:29;;;;;;;37.72;23.58;;;;;;;3.14;100.00;103376.59;10462338;28;20083;-53
2022/01/24 05:47:31;;;;;;;37.20;22.95;;;;;;;3.30;100.00;103373.38;10463241;28;20053;-56
2022/01/24 05:52:34;;;;;;;33.38;20.73;;;;;;;3.05;100.00;103379.06;10461753;28;20049;-55
2022/01/24 05:57:37;;;;;;;31.92;22.50;;;;;;;3.27;100.00;103380.22;10461576;28;20493;-54
2022/01/24 06:02:40;;;;;;;35.15;22.48;;;;;;;3.06;100.00;103384.25;10461376;28;20405;-55
2022/01/24 06:07:42;;;;;;;33.97;21.60;;;;;;;3.12;100.00;103378.28;10459990;28;20052;-53
2022/01/24 06:12:45;;;;;;;31.45;21.38;;;;;;;3.17;100.00;103382.66;10459899;28;20049;-55
2022/01/24 06:17:47;;;;;;;41.95;23.90;;;;;;;3.44;100.00;103388.25;10460664;28;20052;-51
2022/01/24 06:22:50;;;;;;;35.35;23.00;;;;;;;3.34;100.00;103388.09;10460586;28;20485;-55
2022/01/24 06:27:52;;;;;;;34.10;23.25;;;;;;;3.25;100.00;103372.44;10461635;28;20052;-53
2022/01/24 06:32:55;;;;;;;33.65;21.73;;;;;;;3.28;100.00;103382.84;10460593;28;20049;-56
2022/01/24 06:37:57;;;;;;;36.08;24.45;;;;;;;3.12;100.00;103384.31;10460089;28;20053;-53
2022/01/24 06:42:59;;;;;;;35.22;22.08;;;;;;;3.16;100.00;103383.53;10459654;28;20060;-56
2022/01/24 06:48:02;;;;;;;38.60;22.73;;;;;;;3.21;100.00;103382.72;10459708;28;20060;-58
2022/01/24 06:53:04;;;;;;;33.85;22.52;;;;;;;3.21;100.00;103393.06;10458929;28;20059;-56
2022/01/24 06:58:06;;;;;;;38.13;23.67;;;;;;;3.19;100.00;103392.19;10458490;28;20382;-58
2022/01/24 07:03:09;;;;;;;36.80;23.08;;;;;;;3.11;100.00;103392.06;10459155;28;20060;-55
2022/01/24 07:08:11;;;;;;;32.85;22.42;;;;;;;3.08;100.00;103398.09;10460384;28;20053;-55
2022/01/24 07:13:13;;;;;;;33.90;22.20;;;;;;;3.05;100.00;103398.03;10458491;28;20056;-55
2022/01/24 07:18:57;;;;;;;40.28;23.75;;;;;;;3.26;100.00;103407.84;10458420;28;20520;-51
2022/01/24 07:23:40;;;;;;;33.55;21.23;;;;;;;3.48;100.00;103401.25;10458167;28;20072;-56
2022/01/24 07:28:44;;;;;;;37.92;23.60;;;;;;;3.22;100.00;103403.47;10458590;28;20057;-56
2022/01/24 07:33:46;;;;;;;34.03;22.52;;;;;;;3.15;100.00;103410.25;10457482;28;20041;-55
2022/01/24 07:38:49;;;;;;;32.97;21.30;;;;;;;3.17;100.00;103410.28;10457764;28;20045;-53
2022/01/24 07:43:52;;;;;;;38.35;23.27;;;;;;;3.28;100.00;103429.47;10458781;28;20060;-54
2022/01/24 07:48:54;;;;;;;34.67;21.23;;;;;;;3.46;100.00;103420.22;10457248;28;20095;-58
2022/01/24 07:53:57;;;;;;;29.77;20.23;;;;;;;3.23;100.00;103425.03;10456956;28;20508;-57
2022/01/24 07:59:00;;;;;;;34.75;22.23;;;;;;;3.42;100.00;103429.66;10456971;28;20136;-54
2022/01/24 08:04:02;;;;;;;40.90;24.38;;;;;;;3.24;100.00;103431.97;10457406;28;20064;-52
2022/01/24 08:09:06;;;;;;;35.55;22.63;;;;;;;3.46;100.00;103427.97;10457001;28;20049;-52
2022/01/24 08:14:08;;;;;;;33.35;22.08;;;;;;;3.69;100.00;103426.56;10456306;28;20045;-53
2022/01/24 08:19:11;;;;;;;29.45;22.02;;;;;;;3.39;100.00;103431.34;10457002;28;20041;-53
2022/01/24 08:24:13;;;;;;;33.03;22.67;;;;;;;3.57;100.00;103431.59;10457439;28;20413;-56
2022/01/24 08:29:15;;;;;;;33.67;23.52;;;;;;;3.71;100.00;103442.16;10456159;28;20049;-56
2022/01/24 08:34:18;;;;;;;33.17;21.40;;;;;;;3.47;100.00;103435.78;10464219;28;20052;-56
2022/01/24 08:39:20;;;;;;;28.58;20.75;;;;;;;3.89;100.00;103438.94;10464792;28;20049;-56
2022/01/24 08:45:41;;;;;;;32.22;22.30;;;;;;;3.74;100.00;103441.34;10464594;28;20057;-55
2022/01/24 08:49:45;;;;;;;30.48;21.52;;;;;;;3.92;100.00;103433.81;10464747;28;20140;-57
2022/01/24 08:54:48;;;;;;;33.33;22.77;;;;;;;3.93;100.00;103427.75;10464505;28;20045;-56
2022/01/24 08:59:50;;;;;;;26.48;19.63;;;;;;;3.92;100.00;103426.03;10464288;28;20049;-58
2022/01/24 09:04:53;;;;;;;29.17;21.10;;;;;;;3.78;100.00;103420.63;10463504;28;20053;-53
2022/01/24 09:09:56;;;;;;;28.95;20.90;;;;;;;3.98;100.00;103428.66;10463507;28;20041;-55
2022/01/24 09:15:04;;;;;;;27.75;21.20;;;;;;;4.25;100.00;103435.94;10463577;28;20099;-58
2022/01/24 09:20:13;;;;;;;25.38;19.55;;;;;;;4.39;100.00;103430.88;10463265;28;20124;-54
2022/01/24 09:25:18;;;;;;;27.80;21.60;;;;;;;4.00;100.00;103426.09;10463206;28;20053;-55
2022/01/24 09:30:23;;;;;;;25.13;20.02;;;;;;;4.37;100.00;103437.78;10463128;28;20056;-58
2022/01/24 09:35:28;;;;;;;34.03;23.02;;;;;;;4.21;100.00;103431.53;10462518;28;20052;-55
2022/01/24 09:40:30;;;;;;;29.63;21.38;;;;;;;4.06;100.00;103434.81;10465676;28;20051;-57
2022/01/24 09:45:33;;;;;;;28.52;21.50;;;;;;;4.01;100.00;103438.22;10460559;28;20056;-58
2022/01/24 09:50:35;;;;;;;28.83;21.15;;;;;;;4.17;100.00;103436.66;10462535;28;20044;-55
2022/01/24 09:55:37;;;;;;;21.38;18.75;;;;;;;4.30;100.00;103430.78;10461149;28;20047;-55
2022/01/24 10:00:40;;;;;;;27.27;20.65;;;;;;;4.32;100.00;103428.19;10462446;28;20045;-53
2022/01/24 10:05:50;;;;;;;28.75;21.55;;;;;;;4.70;100.00;103430.31;10460528;28;20053;-55
2022/01/24 10:11:06;;;;;;;23.83;21.05;;;;;;;4.57;99.50;103431.91;10461919;28;20049;-57
2022/01/24 10:16:35;;;;;;;24.88;21.95;;;;;;;4.78;99.90;103433.88;10460978;28;20559;-56
2022/01/24 10:21:52;;;;;;;26.35;21.48;;;;;;;4.64;100.00;103431.16;10481336;28;20049;-55
2022/01/24 10:27:17;;;;;;;23.42;18.80;;;;;;;4.63;97.29;103429.41;10460898;28;20048;-60
2022/01/24 10:32:38;;;;;;;19.92;17.35;;;;;;;4.62;95.83;103431.13;10461528;28;20080;-57
2022/01/24 10:37:40;;;;;;;21.23;17.15;;;;;;;4.61;95.53;103421.59;10460408;28;20049;-59
2022/01/24 10:42:52;;;;;;;19.02;15.73;;;;;;;4.53;96.51;103428.44;10460456;28;20060;-56
2022/01/24 10:47:55;;;;;;;20.35;15.65;;;;;;;4.89;96.04;103418.38;10460054;28;20106;-56
2022/01/24 10:53:05;;;;;;;22.48;15.32;;;;;;;4.59;94.59;103417.22;10457810;28;20080;-55
2022/01/24 10:58:13;;;;;;;20.30;17.00;;;;;;;4.70;96.46;103404.38;10458965;28;20053;-57
2022/01/24 11:03:19;;;;;;;18.83;15.95;;;;;;;4.53;95.35;103399.03;10480502;28;20547;-56
2022/01/24 11:08:23;;;;;;;17.65;15.45;;;;;;;4.51;94.66;103387.78;10459119;28;20049;-58
2022/01/24 11:13:31;;;;;;;16.90;15.10;;;;;;;4.67;93.79;103389.63;10458799;28;20497;-57
2022/01/24 11:18:34;;;;;;;19.05;16.02;;;;;;;4.77;93.46;103382.78;10458207;28;20405;-58
2022/01/24 11:23:40;;;;;;;16.85;13.70;;;;;;;4.62;92.32;103386.13;10457367;28;20044;-56
2022/01/24 11:28:44;;;;;;;18.25;16.25;;;;;;;4.73;93.59;103396.63;10458539;28;20045;-55
2022/01/24 11:34:20;;;;;;;16.15;14.45;;;;;;;4.69;93.66;103387.03;10457978;28;20493;-55
2022/01/24 11:39:23;;;;;;;16.58;14.85;;;;;;;4.79;93.91;103384.56;10468663;28;20044;-54
2022/01/24 11:44:27;;;;;;;16.50;14.70;;;;;;;4.74;93.94;103375.88;10467655;28;20088;-58
2022/01/24 11:49:36;;;;;;;19.20;16.55;;;;;;;4.70;93.28;103374.09;10456514;28;20128;-55
2022/01/24 12:00:03;;;;;;;22.17;19.13;;;;;;;5.03;93.91;103376.09;10457766;28;20135;-58
2022/01/24 12:05:16;;;;;;;21.65;19.35;;;;;;;5.31;95.15;103371.09;10457049;28;20053;-58
2022/01/24 12:10:25;;;;;;;20.15;18.15;;;;;;;5.18;91.92;103377.91;10457208;28;20051;-55
2022/01/24 12:15:37;;;;;;;23.33;20.90;;;;;;;4.87;94.91;103369.03;10455629;28;20052;-57
2022/01/24 12:20:44;;;;;;;24.27;20.77;;;;;;;4.77;93.49;103367.22;10477892;28;20045;-58
2022/01/24 12:25:54;;;;;;;22.40;20.15;;;;;;;4.70;92.31;103363.72;10456783;28;20045;-59
2022/01/24 12:31:17;;;;;;;21.00;18.98;;;;;;;5.02;91.25;103358.75;10456795;28;20401;-59
2022/01/24 12:36:47;;;;;;;23.23;20.67;;;;;;;5.12;93.02;103356.22;10455126;28;20497;-55
2022/01/24 12:41:58;;;;;;;24.70;22.30;;;;;;;5.07;92.25;103348.41;10457363;28;20099;-57
2022/01/24 12:47:02;;;;;;;24.33;22.05;;;;;;;4.86;93.37;103336.16;10456413;28;20370;-57
2022/01/24 12:52:10;;;;;;;23.20;20.70;;;;;;;4.83;92.67;103342.19;10454651;28;20076;-58
2022/01/24 12:57:16;;;;;;;26.25;21.02;;;;;;;4.96;92.53;103345.75;10455919;28;20041;-58
2022/01/24 13:02:30;;;;;;;24.35;21.88;;;;;;;4.83;92.22;103336.13;10470189;28;20063;-58
2022/01/24 13:07:34;;;;;;;24.10;21.67;;;;;;;5.41;94.91;103340.78;10455910;28;20053;-57
2022/01/24 13:12:37;;;;;;;25.45;22.92;;;;;;;5.35;94.32;103339.06;10455955;28;20049;-59
2022/01/24 13:23:05;;;;;;;26.08;21.83;;;;;;;5.39;93.15;103332.13;10463032;28;20513;-58
2022/01/24 13:28:17;;;;;;;26.23;23.45;;;;;;;5.59;93.44;103327.03;10463062;28;20041;-54
2022/01/24 13:33:26;;;;;;;23.88;21.48;;;;;;;5.33;91.10;103321.69;10463098;28;20124;-58
2022/01/24 13:38:31;;;;;;;26.35;23.52;;;;;;;5.18;92.05;103312.13;10462415;28;20408;-57
2022/01/24 13:43:36;;;;;;;26.65;23.85;;;;;;;5.01;91.13;103315.47;10462999;28;20057;-58
2022/01/24 13:48:51;;;;;;;27.40;24.25;;;;;;;5.50;93.31;103312.28;10462043;28;20576;-57
2022/01/24 13:53:57;;;;;;;30.40;26.17;;;;;;;5.48;94.51;103314.00;10461895;28;20413;-54
2022/01/24 13:59:13;;;;;;;28.45;25.50;;;;;;;5.45;93.61;103310.53;10461603;28;20045;-55
2022/01/24 14:04:29;;;;;;;27.48;24.65;;;;;;;5.26;91.37;103297.44;10461541;28;20045;-59
2022/01/24 14:09:38;;;;;;;23.42;20.83;;;;;;;5.26;92.31;103293.97;10461188;28;20049;-56
2022/01/24 14:14:48;;;;;;;28.65;25.60;;;;;;;5.43;95.97;103291.44;10460733;28;20045;-57
2022/01/24 14:19:59;;;;;;;25.25;22.65;;;;;;;5.33;94.54;103290.53;10481922;28;20039;-55
2022/01/24 14:25:02;;;;;;;26.23;23.63;;;;;;;5.43;94.97;103294.03;10461049;28;20049;-57
2022/01/24 14:30:08;;;;;;;26.98;24.38;;;;;;;5.65;93.99;103294.97;10459642;28;20056;-55
2022/01/24 14:35:10;;;;;;;30.75;25.17;;;;;;;5.50;96.28;103288.88;10460621;28;20044;-56
2022/01/24 14:40:36;;;;;;;26.02;23.33;;;;;;;5.40;96.76;103292.31;10460097;28;20524;-56
2022/01/24 14:45:38;;;;;;;27.42;22.73;;;;;;;5.20;95.12;103289.63;10460631;28;20051;-57
2022/01/24 14:50:41;;;;;;;26.52;23.83;;;;;;;5.12;92.90;103283.50;10459652;28;20056;-54
2022/01/24 14:55:43;;;;;;;27.75;24.73;;;;;;;5.15;93.02;103283.53;10459773;28;20049;-57
2022/01/24 15:00:45;;;;;;;29.27;25.83;;;;;;;5.36;91.90;103286.25;10480261;28;20064;-58
2022/01/24 15:05:48;;;;;;;30.85;26.80;;;;;;;5.15;93.72;103280.94;10459319;28;20049;-54
2022/01/24 15:10:51;;;;;;;28.42;25.42;;;;;;;5.15;93.19;103280.94;10459005;28;20048;-55
2022/01/24 15:16:12;;;;;;;31.83;28.50;;;;;;;5.35;95.18;103286.22;10458537;28;20061;-54
2022/01/24 15:26:36;;;;;;;28.65;25.65;;;;;;;5.09;94.20;103279.16;10458688;28;20048;-56
2022/01/24 15:31:38;;;;;;;29.70;24.65;;;;;;;4.99;93.41;103282.56;10457123;28;20045;-58
2022/01/24 15:36:42;;;;;;;29.48;24.60;;;;;;;5.01;92.92;103280.88;10457851;28;20060;-56
2022/01/24 15:41:50;;;;;;;27.35;24.42;;;;;;;5.08;91.26;103286.94;10465897;28;20056;-58
2022/01/24 15:46:58;;;;;;;29.75;26.35;;;;;;;5.15;91.48;103284.41;10457756;28;20527;-59
2022/01/24 15:52:01;;;;;;;27.98;24.63;;;;;;;5.02;92.28;103282.59;10457496;28;20082;-58
2022/01/24 16:02:25;;;;;;;31.85;28.45;;;;;;;4.99;96.98;103285.16;10457193;28;20049;-59
2022/01/24 16:07:27;;;;;;;28.13;25.20;;;;;;;5.03;96.22;103294.72;10457292;28;20055;-56
2022/01/24 16:12:30;;;;;;;29.63;24.65;;;;;;;5.10;97.12;103301.69;10456501;28;20485;-56
2022/01/24 16:17:32;;;;;;;30.15;25.63;;;;;;;4.98;95.85;103299.88;10456476;28;20057;-57
2022/01/24 16:23:00;;;;;;;30.77;24.90;;;;;;;5.16;100.00;103319.00;10469387;28;20070;-58
2022/01/24 16:28:04;;;;;;;30.35;25.83;;;;;;;4.89;100.00;103320.56;10467484;28;20410;-56
2022/01/24 16:33:07;;;;;;;28.60;25.65;;;;;;;4.86;99.88;103320.59;10456056;28;20507;-53
2022/01/24 16:38:11;;;;;;;34.72;26.70;;;;;;;4.97;97.94;103325.84;10455379;28;20076;-56
2022/01/24 16:48:19;;;;;;;29.75;26.67;;;;;;;4.90;99.99;103327.53;10456094;28;20048;-54
2022/01/24 16:53:22;;;;;;;29.50;26.45;;;;;;;4.98;100.00;103331.03;10459638;28;20045;-56
2022/01/24 16:58:25;;;;;;;34.03;28.98;;;;;;;4.68;100.00;103334.28;10464511;28;20060;-53
2022/01/24 17:03:29;;;;;;;33.85;30.08;;;;;;;4.79;100.00;103331.75;10462682;28;20053;-57
2022/01/24 17:08:32;;;;;;;32.97;29.48;;;;;;;4.89;99.07;103328.38;10484181;28;20045;-56
2022/01/24 17:13:35;;;;;;;36.22;31.42;;;;;;;4.65;100.00;103336.84;10462981;28;20048;-54
2022/01/24 17:18:37;;;;;;;45.60;33.75;;;;;;;4.69;99.94;103330.84;10462652;28;20057;-58
2022/01/24 17:23:40;;;;;;;40.40;33.70;;;;;;;4.93;98.82;103339.66;10463320;28;20076;-57
2022/01/24 17:28:42;;;;;;;40.30;33.38;;;;;;;4.74;97.62;103333.44;10463785;28;20060;-54
2022/01/24 17:33:44;;;;;;;36.05;31.13;;;;;;;4.76;95.99;103336.94;10462993;28;20045;-57
2022/01/24 17:38:47;;;;;;;39.53;32.22;;;;;;;4.79;96.71;103345.63;10462660;28;20049;-56
2022/01/24 17:43:50;;;;;;;36.60;32.20;;;;;;;4.74;97.80;103346.44;10472672;28;20049;-54
2022/01/24 17:48:52;;;;;;;41.63;32.83;;;;;;;4.86;95.97;103346.53;10472146;28;20103;-56
2022/01/24 17:53:54;;;;;;;40.75;33.60;;;;;;;4.67;97.06;103347.25;10462162;28;20045;-56
2022/01/24 17:58:57;;;;;;;39.80;33.75;;;;;;;4.56;99.41;103360.13;10461986;28;20048;-58
2022/01/24 18:03:59;;;;;;;41.78;34.13;;;;;;;4.71;100.00;103361.97;10461260;28;20555;-57
2022/01/24 18:09:03;;;;;;;43.85;35.28;;;;;;;4.84;98.16;103358.63;10461918;28;20053;-57
2022/01/24 18:14:05;;;;;;;42.90;35.70;;;;;;;4.68;97.09;103365.44;10461174;28;20049;-53
2022/01/24 18:19:08;;;;;;;40.88;34.13;;;;;;;4.64;97.70;103371.47;10460315;28;20049;-53
2022/01/24 18:24:10;;;;;;;47.13;36.83;;;;;;;4.67;98.22;103376.66;10482372;28;20105;-56
2022/01/24 18:29:13;;;;;;;47.33;35.88;;;;;;;4.71;97.39;103373.25;10460100;28;20049;-56
2022/01/24 18:34:15;;;;;;;52.42;39.28;;;;;;;4.52;98.09;103368.75;10460610;28;20056;-56
2022/01/24 18:39:24;;;;;;;46.35;36.40;;;;;;;4.39;98.07;103379.00;10460884;28;20115;-53
2022/01/24 18:44:35;;;;;;;47.25;37.10;;;;;;;4.57;98.84;103369.66;10460274;28;20060;-56
2022/01/24 18:49:38;;;;;;;50.58;38.33;;;;;;;4.51;97.96;103370.47;10459892;28;20045;-56
2022/01/24 18:54:40;;;;;;;52.35;40.42;;;;;;;4.33;96.76;103378.94;10459850;28;20053;-54
2022/01/24 18:59:42;;;;;;;47.25;38.42;;;;;;;4.42;97.78;103375.56;10459492;28;20055;-54
2022/01/24 19:04:45;;;;;;;48.88;38.58;;;;;;;4.72;96.98;103377.56;10468744;28;20053;-55
2022/01/24 19:09:47;;;;;;;51.85;40.70;;;;;;;4.37;97.54;103372.94;10458933;28;20060;-53
2022/01/24 19:14:52;;;;;;;51.38;40.95;;;;;;;4.53;96.13;103379.13;10458966;28;20056;-58
2022/01/24 19:25:15;;;;;;;48.92;37.90;;;;;;;4.27;94.42;103371.13;10458390;28;20044;-55
2022/01/24 19:30:19;;;;;;;53.72;42.13;;;;;;;4.46;96.98;103372.16;10458004;28;20051;-55
2022/01/24 19:35:24;;;;;;;48.90;39.55;;;;;;;4.57;96.93;103372.25;10457768;28;20060;-54
2022/01/24 19:40:27;;;;;;;49.33;40.83;;;;;;;4.46;95.52;103382.53;10457761;28;20403;-54
2022/01/24 19:45:30;;;;;;;51.58;39.45;;;;;;;4.44;94.59;103382.50;10458081;28;20072;-56
2022/01/24 19:50:37;;;;;;;50.10;39.42;;;;;;;4.20;97.52;103377.97;10457262;28;20049;-55
2022/01/24 19:55:45;;;;;;;55.45;40.65;;;;;;;4.15;97.81;103373.56;10457053;28;20047;-55
2022/01/24 20:00:49;;;;;;;56.10;40.53;;;;;;;4.06;98.24;103382.97;10457016;28;20386;-56
2022/01/24 20:05:52;;;;;;;51.30;40.47;;;;;;;4.09;98.29;103379.56;10456811;28;20056;-54
2022/01/24 20:10:55;;;;;;;50.78;40.30;;;;;;;4.24;99.46;103386.63;10457002;28;20060;-54
2022/01/24 20:15:57;;;;;;;51.35;39.50;;;;;;;4.16;100.00;103390.88;10456135;28;20481;-56
2022/01/24 20:21:00;;;;;;;56.40;42.15;;;;;;;4.24;100.00;103389.22;10456466;28;20386;-52
2022/01/24 20:26:04;;;;;;;56.17;42.67;;;;;;;4.20;100.00;103390.03;10472113;28;20067;-56
2022/01/24 20:31:06;;;;;;;56.80;41.13;;;;;;;4.27;99.60;103397.91;10454786;28;20055;-54
2022/01/24 20:36:09;;;;;;;60.97;44.85;;;;;;;4.07;100.00;103396.81;10454595;28;20481;-53
2022/01/24 20:41:11;;;;;;;58.95;43.10;;;;;;;4.07;100.00;103384.72;10454761;28;20393;-57
2022/01/24 20:46:14;;;;;;;59.30;42.90;;;;;;;4.31;100.00;103391.03;10453214;28;20057;-55
2022/01/24 20:51:18;;;;;;;58.97;42.25;;;;;;;4.28;100.00;103383.22;10454429;28;20053;-53
2022/01/24 20:56:21;;;;;;;53.88;41.55;;;;;;;4.09;100.00;103383.00;10453005;28;20045;-56
2022/01/24 21:01:23;;;;;;;56.25;42.28;;;;;;;4.15;100.00;103383.94;10474345;28;20182;-53
2022/01/24 21:06:26;;;;;;;56.35;41.63;;;;;;;4.12;100.00;103386.47;10455146;28;20405;-54
2022/01/24 21:11:36;;;;;;;56.78;43.00;;;;;;;4.16;100.00;103383.09;10454569;28;20049;-53
2022/01/24 21:16:39;;;;;;;66.40;46.75;;;;;;;4.00;100.00;103369.06;10415952;28;1085799;-55
2022/01/24 21:21:41;;;;;;;54.60;40.65;;;;;;;3.95;99.87;103378.50;10455299;28;20056;-57
2022/01/24 21:26:46;;;;;;;58.92;43.78;;;;;;;4.07;100.00;103381.28;10455141;28;20463;-56
2022/01/24 21:31:50;;;;;;;60.88;45.15;;;;;;;3.91;99.57;103390.56;10455202;28;20049;-54
2022/01/24 21:36:53;;;;;;;60.67;44.75;;;;;;;4.18;100.00;103381.38;10455272;28;20046;-57
2022/01/24 21:41:57;;;;;;;62.92;44.15;;;;;;;4.00;100.00;103387.22;10465073;28;20053;-58
2022/01/24 21:47:00;;;;;;;55.75;41.90;;;;;;;4.00;100.00;103384.63;10462800;28;20052;-58
2022/01/24 21:52:04;;;;;;;57.88;42.50;;;;;;;4.00;100.00;103410.53;10462037;28;20511;-55
2022/01/24 21:57:08;;;;;;;63.00;44.53;;;;;;;3.99;100.00;103393.28;10461835;28;20053;-55
2022/01/24 22:02:10;;;;;;;65.85;46.25;;;;;;;4.13;100.00;103393.41;10460797;28;20060;-57
2022/01/24 22:07:34;;;;;;;61.33;45.60;;;;;;;4.08;100.00;103395.94;10461623;28;20440;-55
2022/01/24 22:12:39;;;;;;;65.03;44.60;;;;;;;3.75;100.00;103397.31;10461164;28;20382;-56
2022/01/24 22:17:42;;;;;;;61.92;45.45;;;;;;;4.20;100.00;103401.28;10461301;28;20080;-58
2022/01/24 22:28:08;;;;;;;63.85;45.83;;;;;;;4.05;100.00;103390.72;10460763;28;20045;-56
2022/01/24 22:33:10;;;;;;;68.68;45.97;;;;;;;3.96;100.00;103393.22;10460630;28;20045;-58
2022/01/24 22:38:13;;;;;;;63.30;46.42;;;;;;;4.01;100.00;103389.81;10460086;28;20045;-57
2022/01/24 22:43:16;;;;;;;65.95;44.75;;;;;;;3.95;100.00;103386.28;10459914;28;20103;-55
2022/01/24 22:48:18;;;;;;;57.63;43.42;;;;;;;3.87;100.00;103383.63;10459306;28;20056;-54
2022/01/24 22:53:21;;;;;;;66.20;44.65;;;;;;;3.96;100.00;103375.94;10458992;28;20045;-56
2022/01/24 22:58:24;;;;;;;67.10;45.30;;;;;;;3.75;100.00;103376.56;10459262;28;20049;-57
2022/01/24 23:03:27;;;;;;;63.78;42.50;;;;;;;3.99;100.00;103373.41;10459378;28;20068;-57
2022/01/24 23:08:29;;;;;;;68.10;48.92;;;;;;;3.91;100.00;103378.47;10458857;28;20540;-56
2022/01/24 23:17:31;;;;;;;68.72;46.92;;;;;;;3.90;100.00;103384.53;10458744;28;20535;-55
2022/01/24 23:19:10;;;;;;;69.35;46.83;;;;;;;3.78;100.00;103376.59;10458934;28;20084;-57
2022/01/24 23:24:15;;;;;;;72.30;46.03;;;;;;;3.76;100.00;103388.66;10457435;28;20049;-57
2022/01/24 23:29:22;;;;;;;65.10;45.15;;;;;;;3.74;100.00;103384.31;10458503;28;20040;-53
2022/01/24 23:39:28;;;;;;;72.95;46.33;;;;;;;3.59;100.00;103390.19;10480149;28;20149;-57
2022/01/24 23:44:31;;;;;;;74.60;50.10;;;;;;;3.71;100.00;103387.72;10457697;28;20505;-55
2022/01/24 23:49:33;;;;;;;68.60;48.15;;;;;;;3.91;100.00;103383.66;10457543;28;20383;-56
2022/01/24 23:54:35;;;;;;;67.88;47.25;;;;;;;4.01;100.00;103386.38;10457656;28;20049;-57
